Time;durP1;ratioP1;P1;durP2;ratioP2;P2;SDS_P1;SDS_P2;PMS_P1;PMS_P2;Temp;Humidity;BMP_temperature;BMP_pressure;BME280_temperature;BME280_humidity;BME280_pressure;Samples;Min_cycle;Max_cycle;Signal;HPM_P1;HPM_P2
2023/12/24 00:00:09;;;;;;;16.92;9.70;;;1.20;99.90;;;;;;5091000;28;20024;-87
2023/12/24 00:02:35;;;;;;;12.50;9.40;;;1.20;99.90;;;;;;5110772;28;20451;-91
2023/12/24 00:05:02;;;;;;;13.68;8.57;;;1.20;99.90;;;;;;5116135;28;20525;-90
2023/12/24 00:07:29;;;;;;;12.25;8.63;;;1.20;99.90;;;;;;5105712;28;20043;-90
2023/12/24 00:09:55;;;;;;;11.70;7.55;;;1.30;99.90;;;;;;5109022;28;20070;-88
2023/12/24 00:12:20;;;;;;;14.40;7.43;;;1.20;99.90;;;;;;5105859;28;20024;-90
2023/12/24 00:14:46;;;;;;;12.30;7.13;;;1.20;99.90;;;;;;5107765;28;20145;-89
2023/12/24 00:17:12;;;;;;;17.13;7.97;;;1.20;99.90;;;;;;5110654;28;20028;-90
2023/12/24 00:19:38;;;;;;;10.98;7.55;;;1.20;99.90;;;;;;5103487;28;20048;-90
2023/12/24 00:22:07;;;;;;;12.48;7.40;;;1.20;99.90;;;;;;5093738;28;20101;-88
2023/12/24 00:24:33;;;;;;;10.40;7.05;;;1.20;99.90;;;;;;5087940;28;20068;-90
2023/12/24 00:26:59;;;;;;;12.27;8.02;;;1.20;99.90;;;;;;5070140;28;20289;-89
2023/12/24 00:29:25;;;;;;;8.25;5.85;;;1.20;99.90;;;;;;5083078;28;20032;-89
2023/12/24 00:31:51;;;;;;;9.88;7.68;;;1.30;99.90;;;;;;5101780;28;20015;-89
2023/12/24 00:34:17;;;;;;;13.25;7.75;;;1.30;99.90;;;;;;5073357;28;20075;-90
2023/12/24 00:36:42;;;;;;;9.95;6.80;;;1.30;99.90;;;;;;5090531;28;20046;-87
2023/12/24 00:39:09;;;;;;;12.88;8.93;;;1.30;99.90;;;;;;5098838;28;20237;-88
2023/12/24 00:41:37;;;;;;;14.48;8.70;;;1.30;99.90;;;;;;5075509;28;20031;-89
2023/12/24 00:44:03;;;;;;;12.50;8.23;;;1.30;99.90;;;;;;5082200;28;20096;-89
2023/12/24 00:46:29;;;;;;;13.60;8.20;;;1.30;99.90;;;;;;5082580;28;20125;-87
2023/12/24 00:48:55;;;;;;;10.93;7.65;;;1.30;99.90;;;;;;5099569;28;20035;-88
2023/12/24 00:51:21;;;;;;;11.27;7.45;;;1.30;99.90;;;;;;5081813;28;20035;-87
2023/12/24 00:53:46;;;;;;;17.13;8.35;;;1.30;99.90;;;;;;5092248;28;20430;-90
2023/12/24 00:56:12;;;;;;;12.25;8.00;;;1.30;99.90;;;;;;5110108;28;20015;-90
2023/12/24 00:58:38;;;;;;;10.32;8.15;;;1.30;99.90;;;;;;5103056;28;20168;-89
2023/12/24 01:01:04;;;;;;;10.63;8.23;;;1.20;99.90;;;;;;5103290;28;20031;-88
2023/12/24 01:03:30;;;;;;;13.07;7.70;;;1.20;99.90;;;;;;5122180;28;20019;-89
2023/12/24 01:05:55;;;;;;;11.48;7.25;;;1.20;99.90;;;;;;5111090;28;20038;-88
2023/12/24 01:08:21;;;;;;;10.40;6.88;;;1.20;99.90;;;;;;5101432;28;20012;-86
2023/12/24 01:10:48;;;;;;;10.48;8.07;;;1.20;99.90;;;;;;5118439;28;20089;-87
2023/12/24 01:13:18;;;;;;;12.63;8.83;;;1.20;99.90;;;;;;5121815;28;20019;-87
2023/12/24 01:15:46;;;;;;;12.25;7.65;;;1.20;99.90;;;;;;5117654;28;20024;-88
2023/12/24 01:18:12;;;;;;;;;;;1.20;99.90;;;;;;5121393;28;20023;-87
2023/12/24 01:20:38;;;;;;;15.60;8.00;;;1.20;99.90;;;;;;5118605;28;19904;-90
2023/12/24 01:23:04;;;;;;;12.48;9.23;;;1.10;99.90;;;;;;5130345;28;20294;-88
2023/12/24 01:25:30;;;;;;;13.20;8.15;;;1.10;99.90;;;;;;5113150;28;20024;-88
2023/12/24 01:27:56;;;;;;;13.48;8.27;;;1.10;99.90;;;;;;5097849;28;20042;-89
2023/12/24 01:30:21;;;;;;;18.23;9.23;;;1.20;99.90;;;;;;5108817;28;20052;-87
2023/12/24 01:32:47;;;;;;;12.57;9.50;;;1.20;99.90;;;;;;5101649;28;20047;-89
2023/12/24 01:35:13;;;;;;;12.32;8.98;;;1.20;99.90;;;;;;5125215;28;20050;-87
2023/12/24 01:37:39;;;;;;;15.05;8.82;;;1.20;99.90;;;;;;5115142;28;20032;-89
2023/12/24 01:40:05;;;;;;;11.48;9.60;;;1.20;99.90;;;;;;5102519;28;20030;-89
2023/12/24 01:42:31;;;;;;;13.65;8.85;;;1.20;99.90;;;;;;5096846;28;20051;-90
2023/12/24 01:44:57;;;;;;;13.35;9.52;;;1.20;99.90;;;;;;5106937;28;20043;-89
2023/12/24 01:47:23;;;;;;;21.08;11.20;;;1.10;99.90;;;;;;5105459;28;20032;-88
2023/12/24 01:49:50;;;;;;;15.48;9.95;;;1.10;99.90;;;;;;5103706;28;20022;-87
2023/12/24 01:52:16;;;;;;;13.73;9.07;;;1.20;99.90;;;;;;5106289;28;20076;-89
2023/12/24 01:54:44;;;;;;;22.27;11.20;;;1.20;99.90;;;;;;5100429;28;20024;-88
2023/12/24 01:57:10;;;;;;;;;;;1.20;99.90;;;;;;5100722;28;20295;-91
2023/12/24 01:59:37;;;;;;;20.65;11.32;;;1.20;99.90;;;;;;5101692;28;19904;-89
2023/12/24 02:02:04;;;;;;;18.80;9.90;;;1.20;99.90;;;;;;5119420;27;20092;-87
2023/12/24 02:04:31;;;;;;;15.88;9.82;;;1.20;99.90;;;;;;5112323;28;20495;-88
2023/12/24 02:06:57;;;;;;;15.27;8.80;;;1.10;99.90;;;;;;5101045;28;20038;-86
2023/12/24 02:09:23;;;;;;;15.77;9.23;;;1.10;99.90;;;;;;5099009;28;20114;-88
2023/12/24 02:11:50;;;;;;;16.20;10.27;;;1.10;99.90;;;;;;5101938;28;20388;-89
2023/12/24 02:14:16;;;;;;;17.43;10.33;;;1.00;99.90;;;;;;5114265;28;20017;-89
2023/12/24 02:16:46;;;;;;;15.38;9.63;;;1.00;99.90;;;;;;5104963;28;20284;-90
2023/12/24 02:19:18;;;;;;;16.00;10.52;;;1.00;99.90;;;;;;5077961;28;20043;-90
2023/12/24 02:21:44;;;;;;;18.33;11.05;;;1.00;99.90;;;;;;5088882;28;20039;-89
2023/12/24 02:24:10;;;;;;;13.52;10.48;;;1.00;99.90;;;;;;5098442;28;20134;-89
2023/12/24 02:27:04;;;;;;;15.95;10.73;;;1.00;99.90;;;;;;5098948;28;20084;-90
2023/12/24 02:29:40;;;;;;;19.10;11.77;;;1.10;99.90;;;;;;5117884;28;20027;-89
2023/12/24 02:32:12;;;;;;;16.23;11.68;;;1.10;99.90;;;;;;5119438;28;20070;-90
2023/12/24 02:34:39;;;;;;;17.17;11.07;;;1.10;99.90;;;;;;5090338;28;20067;-91
2023/12/24 02:37:06;;;;;;;20.50;9.95;;;1.10;99.90;;;;;;5104475;28;20035;-86
2023/12/24 02:39:32;;;;;;;16.52;10.13;;;1.10;99.90;;;;;;5098787;28;20473;-86
2023/12/24 02:41:58;;;;;;;18.90;11.43;;;1.10;99.90;;;;;;5108745;28;20020;-86
2023/12/24 02:44:24;;;;;;;18.92;9.52;;;1.10;99.90;;;;;;5105177;28;20331;-86
2023/12/24 02:46:49;;;;;;;15.35;10.95;;;1.00;99.90;;;;;;5105237;28;20027;-86
2023/12/24 02:49:16;;;;;;;14.75;10.88;;;1.00;99.90;;;;;;5106962;28;20028;-87
2023/12/24 02:51:41;;;;;;;23.92;12.57;;;1.00;99.90;;;;;;5112029;28;20392;-89
2023/12/24 02:54:07;;;;;;;19.88;11.65;;;1.10;99.90;;;;;;5114396;28;20091;-87
2023/12/24 02:56:36;;;;;;;16.38;9.52;;;1.10;99.90;;;;;;5108601;28;20020;-85
2023/12/24 02:59:03;;;;;;;17.85;10.35;;;1.10;99.90;;;;;;5080495;28;20084;-87
2023/12/24 03:01:30;;;;;;;16.42;9.73;;;1.10;99.90;;;;;;5079038;28;20051;-86
2023/12/24 03:03:56;;;;;;;16.80;10.33;;;1.10;99.90;;;;;;5096865;28;20023;-87
2023/12/24 03:06:22;;;;;;;15.40;11.17;;;1.10;99.90;;;;;;5104362;28;20032;-88
2023/12/24 03:08:48;;;;;;;17.98;9.50;;;1.10;99.90;;;;;;5123350;28;21149;-87
2023/12/24 03:11:14;;;;;;;14.95;9.43;;;1.10;99.90;;;;;;5124363;28;20036;-87
2023/12/24 03:13:40;;;;;;;17.33;10.45;;;1.00;99.90;;;;;;5098056;28;20103;-87
2023/12/24 03:16:06;;;;;;;15.93;11.63;;;1.00;99.90;;;;;;5114943;28;20042;-88
2023/12/24 03:18:32;;;;;;;20.58;11.23;;;1.00;99.90;;;;;;5083887;28;20020;-87
2023/12/24 03:20:59;;;;;;;16.58;10.18;;;1.00;99.90;;;;;;5091157;28;20024;-87
2023/12/24 03:23:25;;;;;;;17.42;10.82;;;1.10;99.90;;;;;;5100882;28;20039;-86
2023/12/24 03:25:51;;;;;;;16.35;11.60;;;1.10;99.90;;;;;;5108075;28;20132;-87
2023/12/24 03:28:17;;;;;;;16.42;9.75;;;1.10;99.90;;;;;;5112181;28;20058;-87
2023/12/24 03:30:42;;;;;;;12.40;8.40;;;1.00;99.90;;;;;;5094552;28;20024;-86
2023/12/24 03:33:08;;;;;;;19.95;12.23;;;1.00;99.90;;;;;;5094482;28;20016;-86
2023/12/24 03:35:34;;;;;;;14.95;10.90;;;1.10;99.90;;;;;;5095092;28;20710;-87
2023/12/24 03:38:01;;;;;;;18.33;10.23;;;1.00;99.90;;;;;;5118143;28;20062;-86
2023/12/24 03:40:26;;;;;;;12.13;8.35;;;1.00;99.90;;;;;;5112837;28;20019;-86
2023/12/24 03:42:52;;;;;;;17.83;9.80;;;1.00;99.90;;;;;;5112409;28;20487;-86
2023/12/24 03:45:18;;;;;;;14.93;9.65;;;1.00;99.90;;;;;;5107310;28;20051;-87
2023/12/24 03:47:44;;;;;;;13.75;9.25;;;1.00;99.90;;;;;;5116467;28;20027;-87
2023/12/24 03:50:09;;;;;;;14.95;10.75;;;0.90;99.90;;;;;;5109110;28;20115;-86
2023/12/24 03:52:35;;;;;;;15.95;8.73;;;0.90;99.90;;;;;;5090724;28;20028;-87
2023/12/24 03:55:01;;;;;;;14.73;10.32;;;1.00;99.90;;;;;;5112880;28;20073;-86
2023/12/24 03:57:27;;;;;;;14.40;9.95;;;1.00;99.90;;;;;;5084413;28;20078;-87
2023/12/24 03:59:53;;;;;;;16.67;10.30;;;1.00;99.90;;;;;;5110616;28;20024;-86
2023/12/24 04:02:19;;;;;;;14.80;9.93;;;1.10;99.90;;;;;;5115318;28;20054;-88
2023/12/24 04:04:48;;;;;;;15.77;10.15;;;1.10;99.90;;;;;;5097870;28;20020;-88
2023/12/24 04:07:17;;;;;;;13.40;9.35;;;1.10;99.90;;;;;;5095785;28;20114;-89
2023/12/24 04:09:43;;;;;;;15.57;10.38;;;1.10;99.90;;;;;;5089919;28;20035;-88
2023/12/24 04:12:09;;;;;;;15.60;9.82;;;1.10;99.90;;;;;;5109794;28;20424;-88
2023/12/24 04:14:38;;;;;;;16.33;11.07;;;1.10;99.90;;;;;;5107101;28;20028;-88
2023/12/24 04:17:05;;;;;;;18.60;11.90;;;1.10;99.90;;;;;;5077508;28;20407;-89
2023/12/24 04:19:31;;;;;;;17.13;10.75;;;1.10;99.90;;;;;;5108532;28;20104;-89
2023/12/24 04:21:57;;;;;;;14.95;10.02;;;1.10;99.90;;;;;;5094306;28;20078;-89
2023/12/24 04:24:24;;;;;;;15.15;9.43;;;1.10;99.90;;;;;;5096210;28;20024;-88
2023/12/24 04:26:50;;;;;;;19.03;12.17;;;1.10;99.90;;;;;;5099095;28;20635;-88
2023/12/24 04:29:16;;;;;;;16.13;10.77;;;1.10;99.90;;;;;;5096298;28;20023;-90
2023/12/24 04:31:42;;;;;;;16.52;9.65;;;1.00;99.90;;;;;;5113917;28;20019;-88
2023/12/24 04:34:07;;;;;;;16.25;10.52;;;1.00;99.90;;;;;;5094574;28;20038;-88
2023/12/24 04:36:36;;;;;;;22.45;9.73;;;1.00;99.90;;;;;;5094555;28;20028;-89
2023/12/24 04:39:02;;;;;;;13.98;10.10;;;0.90;99.90;;;;;;5093273;28;20020;-88
2023/12/24 04:41:28;;;;;;;15.10;10.32;;;0.90;99.90;;;;;;5116350;28;20004;-87
2023/12/24 04:43:55;;;;;;;16.08;10.48;;;0.90;99.90;;;;;;5102358;28;20163;-87
2023/12/24 04:46:21;;;;;;;12.93;9.80;;;0.90;99.90;;;;;;5069553;28;20090;-88
2023/12/24 04:48:47;;;;;;;15.30;10.60;;;0.90;99.90;;;;;;5082053;28;20388;-87
2023/12/24 04:51:13;;;;;;;14.68;10.27;;;0.90;99.90;;;;;;5078050;28;20028;-88
2023/12/24 04:53:38;;;;;;;15.20;10.85;;;0.90;99.90;;;;;;5094717;28;20020;-86
2023/12/24 04:56:04;;;;;;;18.05;11.00;;;1.00;99.90;;;;;;5079102;28;20028;-87
2023/12/24 04:58:30;;;;;;;14.32;9.50;;;1.00;99.90;;;;;;5092640;28;20016;-87
2023/12/24 05:00:57;;;;;;;18.52;10.93;;;1.00;99.90;;;;;;5091966;28;20035;-86
2023/12/24 05:03:23;;;;;;;15.37;10.47;;;1.00;99.90;;;;;;5079351;28;20024;-88
2023/12/24 05:05:49;;;;;;;13.05;8.77;;;1.00;99.90;;;;;;5091552;28;20507;-87
2023/12/24 05:08:15;;;;;;;15.10;10.50;;;1.00;99.90;;;;;;5094087;28;20460;-87
2023/12/24 05:10:41;;;;;;;17.30;11.32;;;1.00;99.90;;;;;;5087291;28;20020;-87
2023/12/24 05:13:07;;;;;;;16.05;10.07;;;1.00;99.90;;;;;;5065998;28;20362;-87
2023/12/24 05:15:32;;;;;;;14.70;9.00;;;1.00;99.90;;;;;;5068460;28;20119;-87
2023/12/24 05:17:58;;;;;;;15.35;8.90;;;1.00;99.90;;;;;;5059083;28;20489;-86
2023/12/24 05:20:24;;;;;;;13.85;10.32;;;1.00;99.90;;;;;;5082547;28;20032;-86
2023/12/24 05:22:50;;;;;;;17.15;10.10;;;0.90;99.90;;;;;;5063855;28;20076;-86
2023/12/24 05:25:16;;;;;;;15.05;10.23;;;0.90;99.90;;;;;;5102085;28;20374;-89
2023/12/24 05:27:41;;;;;;;16.10;9.85;;;1.00;99.90;;;;;;5067909;28;20032;-86
2023/12/24 05:30:07;;;;;;;16.20;10.52;;;1.00;99.90;;;;;;5086153;28;20012;-87
2023/12/24 05:32:34;;;;;;;13.57;8.68;;;0.90;99.90;;;;;;5091702;28;20392;-88
2023/12/24 05:34:59;;;;;;;15.07;9.25;;;0.90;99.90;;;;;;5094801;28;20016;-86
2023/12/24 05:37:25;;;;;;;16.88;11.13;;;0.80;99.90;;;;;;5095185;28;20495;-88
2023/12/24 05:39:51;;;;;;;15.82;10.85;;;0.70;99.90;;;;;;5077449;28;20093;-87
2023/12/24 05:42:17;;;;;;;17.25;11.05;;;0.70;99.90;;;;;;5084410;28;20024;-89
2023/12/24 05:44:42;;;;;;;20.23;11.40;;;0.70;99.90;;;;;;5093839;28;20040;-87
2023/12/24 05:47:08;;;;;;;16.10;11.13;;;0.80;99.90;;;;;;5096259;28;20046;-88
2023/12/24 05:49:38;;;;;;;15.98;11.80;;;0.80;99.90;;;;;;5097282;28;20077;-87
2023/12/24 05:52:04;;;;;;;18.15;13.25;;;0.80;99.90;;;;;;5089049;28;20017;-87
2023/12/24 05:54:34;;;;;;;18.23;11.93;;;0.80;99.90;;;;;;5106215;28;20115;-89
2023/12/24 05:57:00;;;;;;;15.73;10.35;;;0.80;99.90;;;;;;5050075;28;20033;-88
2023/12/24 05:59:26;;;;;;;15.88;10.68;;;0.70;99.90;;;;;;5041110;28;20525;-88
2023/12/24 06:01:52;;;;;;;19.00;10.98;;;0.60;99.90;;;;;;5065962;28;20029;-88
2023/12/24 06:04:17;;;;;;;14.32;10.23;;;0.60;99.90;;;;;;5064928;28;20058;-86
2023/12/24 06:06:43;;;;;;;15.25;11.00;;;0.50;99.90;;;;;;5064672;28;20064;-88
2023/12/24 06:09:09;;;;;;;19.02;12.32;;;0.50;99.90;;;;;;5046019;28;20120;-88
2023/12/24 06:11:35;;;;;;;20.52;13.75;;;0.50;99.90;;;;;;5056600;28;20083;-88
2023/12/24 06:14:01;;;;;;;17.75;12.63;;;0.50;99.90;;;;;;5050509;28;20028;-88
2023/12/24 06:16:27;;;;;;;20.13;12.13;;;0.50;99.90;;;;;;5057189;28;20025;-89
2023/12/24 06:18:53;;;;;;;22.70;14.90;;;0.60;99.90;;;;;;5071311;28;20021;-87
2023/12/24 06:21:20;;;;;;;19.90;11.80;;;0.60;99.90;;;;;;5048515;28;20112;-87
2023/12/24 06:23:46;;;;;;;18.40;11.82;;;0.60;99.90;;;;;;5031432;28;20028;-88
2023/12/24 06:26:11;;;;;;;22.98;12.25;;;0.60;99.90;;;;;;5036814;28;20045;-87
2023/12/24 06:28:37;;;;;;;22.25;11.98;;;0.60;99.90;;;;;;5036693;28;20025;-88
2023/12/24 06:31:03;;;;;;;18.13;11.02;;;0.60;99.90;;;;;;5052961;28;20071;-87
2023/12/24 06:33:29;;;;;;;45.92;23.02;;;0.60;99.90;;;;;;5053939;28;20029;-87
2023/12/24 06:35:55;;;;;;;24.63;14.50;;;0.60;99.90;;;;;;5041097;28;20025;-88
2023/12/24 06:38:21;;;;;;;20.92;12.02;;;0.70;99.90;;;;;;5071098;28;20028;-89
2023/12/24 06:40:46;;;;;;;18.63;11.82;;;0.70;99.90;;;;;;5060205;28;20029;-86
2023/12/24 06:43:12;;;;;;;17.60;11.15;;;0.70;99.90;;;;;;5054804;28;20025;-87
2023/12/24 06:45:38;;;;;;;21.20;11.85;;;0.70;99.90;;;;;;5047836;28;20449;-87
2023/12/24 06:48:04;;;;;;;19.50;13.35;;;0.80;99.90;;;;;;5071626;28;20056;-87
2023/12/24 06:50:31;;;;;;;18.63;12.10;;;0.80;99.90;;;;;;5076246;28;20028;-88
2023/12/24 06:52:57;;;;;;;20.40;12.98;;;0.80;99.90;;;;;;5076049;28;20021;-89
2023/12/24 06:55:23;;;;;;;17.42;10.55;;;0.70;99.90;;;;;;5067851;28;20028;-90
2023/12/24 06:57:49;;;;;;;17.33;11.32;;;0.80;99.90;;;;;;5085408;28;20035;-89
2023/12/24 07:00:15;;;;;;;22.73;13.07;;;0.70;99.90;;;;;;5084397;28;20389;-89
2023/12/24 07:02:41;;;;;;;18.90;11.55;;;0.70;99.90;;;;;;5093574;28;20473;-90
2023/12/24 07:05:08;;;;;;;20.02;12.52;;;0.80;99.90;;;;;;5096494;28;20028;-92
2023/12/24 07:07:34;;;;;;;29.52;11.38;;;0.80;99.90;;;;;;5068222;28;20028;-89
2023/12/24 07:10:00;;;;;;;19.25;14.02;;;0.80;99.90;;;;;;5091828;28;20043;-89
2023/12/24 07:12:28;;;;;;;22.92;11.63;;;0.90;99.90;;;;;;5077886;28;20021;-90
2023/12/24 07:14:54;;;;;;;15.60;9.50;;;0.90;99.90;;;;;;5061689;28;20102;-87
2023/12/24 07:17:20;;;;;;;12.55;8.82;;;0.90;99.90;;;;;;5089946;28;20052;-90
2023/12/24 07:19:47;;;;;;;15.02;9.57;;;0.90;99.90;;;;;;5066401;28;20020;-88
2023/12/24 07:22:16;;;;;;;19.20;10.00;;;0.90;99.90;;;;;;5092442;28;20027;-89
2023/12/24 07:24:41;;;;;;;15.95;9.07;;;0.80;99.90;;;;;;5082573;28;20407;-89
2023/12/24 07:27:07;;;;;;;27.13;9.90;;;0.80;99.90;;;;;;5070041;28;20043;-89
2023/12/24 07:29:33;;;;;;;14.70;7.95;;;0.80;99.90;;;;;;5064216;28;20090;-89
2023/12/24 07:31:59;;;;;;;15.10;9.88;;;0.80;99.90;;;;;;5081389;28;20031;-88
2023/12/24 07:34:25;;;;;;;15.35;8.55;;;0.90;99.90;;;;;;5084561;28;20027;-87
2023/12/24 07:36:51;;;;;;;15.30;9.05;;;0.90;99.90;;;;;;5103785;28;20016;-85
2023/12/24 07:39:16;;;;;;;15.00;7.82;;;0.90;99.90;;;;;;5089401;28;20036;-87
2023/12/24 07:41:42;;;;;;;11.73;7.90;;;0.90;99.90;;;;;;5078487;28;20052;-87
2023/12/24 07:44:09;;;;;;;11.30;7.88;;;0.90;99.90;;;;;;5084437;28;20155;-87
2023/12/24 07:46:35;;;;;;;11.52;7.18;;;0.90;99.90;;;;;;5098600;28;20502;-88
2023/12/24 07:49:01;;;;;;;13.20;7.05;;;0.90;99.90;;;;;;5110996;28;20028;-83
2023/12/24 07:51:28;;;;;;;11.02;7.82;;;0.90;99.90;;;;;;5106625;28;20023;-85
2023/12/24 07:53:54;;;;;;;12.45;7.65;;;1.00;99.90;;;;;;5112091;28;20016;-86
2023/12/24 07:56:20;;;;;;;16.05;7.95;;;1.00;99.90;;;;;;5114422;28;20051;-84
2023/12/24 07:58:46;;;;;;;19.23;7.40;;;1.10;99.90;;;;;;5107791;28;20362;-92
2023/12/24 08:01:11;;;;;;;13.38;7.18;;;1.10;99.90;;;;;;5107999;28;20067;-91
2023/12/24 08:03:39;;;;;;;11.18;7.80;;;1.10;99.90;;;;;;5099080;28;20020;-91
2023/12/24 08:06:04;;;;;;;13.35;7.95;;;1.10;99.90;;;;;;5106340;28;20477;-90
2023/12/24 08:08:30;;;;;;;15.77;8.75;;;1.20;99.90;;;;;;5095747;28;20046;-87
2023/12/24 08:10:56;;;;;;;11.07;8.07;;;1.30;99.90;;;;;;5094206;28;20546;-88
2023/12/24 08:13:22;;;;;;;12.70;8.68;;;1.30;99.90;;;;;;5103869;28;20024;-92
2023/12/24 08:15:48;;;;;;;12.48;7.38;;;1.40;99.90;;;;;;5102943;28;20599;-91
2023/12/24 08:18:14;;;;;;;15.23;7.85;;;1.50;99.90;;;;;;5104892;28;20058;-92
2023/12/24 08:20:40;;;;;;;14.15;8.30;;;1.50;99.90;;;;;;5107837;28;20035;-91
2023/12/24 08:23:07;;;;;;;10.18;7.78;;;1.60;99.90;;;;;;5116123;28;20050;-90
2023/12/24 08:25:33;;;;;;;10.57;7.63;;;1.60;99.90;;;;;;5109848;28;20388;-87
2023/12/24 08:28:00;;;;;;;11.93;6.70;;;1.50;99.90;;;;;;5100060;28;20504;-86
2023/12/24 08:30:26;;;;;;;;;;;1.50;99.90;;;;;;5088838;28;20023;-90
2023/12/24 08:32:52;;;;;;;9.68;7.28;;;1.40;99.90;;;;;;5098826;28;19915;-90
2023/12/24 08:35:18;;;;;;;12.52;8.82;;;1.40;99.90;;;;;;5106990;28;20029;-89
2023/12/24 08:37:43;;;;;;;12.20;5.97;;;1.40;99.90;;;;;;5104849;28;20031;-88
2023/12/24 08:40:10;;;;;;;11.55;7.95;;;1.40;99.90;;;;;;5099697;28;20932;-88
2023/12/24 08:42:36;;;;;;;9.10;5.90;;;1.40;99.90;;;;;;5098409;28;20044;-89
2023/12/24 08:45:02;;;;;;;8.93;5.90;;;1.40;99.90;;;;;;5083155;28;20048;-88
2023/12/24 08:47:28;;;;;;;9.75;6.05;;;1.40;99.90;;;;;;5100100;28;20051;-87
2023/12/24 08:49:54;;;;;;;9.27;5.68;;;1.30;99.90;;;;;;5092797;28;20016;-87
2023/12/24 08:52:21;;;;;;;8.63;6.50;;;1.30;99.90;;;;;;5088238;28;20028;-89
2023/12/24 08:54:46;;;;;;;8.38;6.00;;;1.20;99.90;;;;;;5092366;28;20024;-88
2023/12/24 08:57:12;;;;;;;10.02;6.30;;;1.30;99.90;;;;;;5106109;28;20131;-87
2023/12/24 08:59:38;;;;;;;7.28;5.75;;;1.40;99.90;;;;;;5087028;28;20024;-86
2023/12/24 09:02:04;;;;;;;9.90;6.18;;;1.50;99.90;;;;;;5098331;28;20506;-88
2023/12/24 09:04:30;;;;;;;12.93;7.47;;;1.60;99.90;;;;;;5090960;28;20058;-89
2023/12/24 09:06:58;;;;;;;9.50;6.38;;;1.70;99.90;;;;;;5106285;28;20035;-88
2023/12/24 09:09:24;;;;;;;9.10;5.28;;;1.80;99.90;;;;;;5104828;28;20022;-89
2023/12/24 09:11:50;;;;;;;9.27;6.28;;;1.80;99.90;;;;;;5092086;28;20046;-88
2023/12/24 09:14:17;;;;;;;9.40;6.00;;;1.70;99.90;;;;;;5112456;28;20099;-87
2023/12/24 09:16:43;;;;;;;8.35;5.60;;;1.70;99.90;;;;;;5109211;28;20020;-88
2023/12/24 09:19:09;;;;;;;7.80;5.70;;;1.60;99.90;;;;;;5103433;28;20150;-88
2023/12/24 09:21:35;;;;;;;6.68;4.97;;;1.60;99.90;;;;;;5109175;28;20016;-87
2023/12/24 09:24:01;;;;;;;8.68;5.25;;;1.60;99.90;;;;;;5111447;28;20123;-88
2023/12/24 09:26:27;;;;;;;9.27;5.20;;;1.50;99.90;;;;;;5115672;28;20056;-89
2023/12/24 09:28:53;;;;;;;6.07;4.85;;;1.50;99.90;;;;;;5103826;28;20034;-90
2023/12/24 09:31:19;;;;;;;9.50;5.18;;;1.50;99.90;;;;;;5105842;28;20035;-88
2023/12/24 09:33:45;;;;;;;5.45;4.15;;;1.50;99.90;;;;;;5124992;28;20039;-87
2023/12/24 09:36:11;;;;;;;6.82;5.13;;;1.50;99.90;;;;;;5107676;28;20065;-87
2023/12/24 09:38:37;;;;;;;7.75;4.75;;;1.50;99.90;;;;;;5110678;28;20016;-87
2023/12/24 09:41:03;;;;;;;7.22;5.07;;;1.50;99.70;;;;;;5101514;28;20097;-88
2023/12/24 09:43:30;;;;;;;6.50;4.63;;;1.50;99.60;;;;;;5100386;28;20024;-88
2023/12/24 09:45:57;;;;;;;8.02;4.72;;;1.50;99.50;;;;;;5107265;28;20032;-86
2023/12/24 09:48:23;;;;;;;9.53;5.63;;;1.50;99.40;;;;;;5122526;28;20012;-87
2023/12/24 09:50:49;;;;;;;11.30;5.78;;;1.50;99.40;;;;;;5123523;28;20039;-89
2023/12/24 09:53:15;;;;;;;7.57;4.82;;;1.50;99.40;;;;;;5129072;28;20008;-89
2023/12/24 09:55:41;;;;;;;10.82;6.18;;;1.50;99.40;;;;;;5107111;28;20039;-88
2023/12/24 09:58:07;;;;;;;11.98;6.88;;;1.60;99.40;;;;;;5115123;28;20346;-88
2023/12/24 10:00:36;;;;;;;9.80;5.93;;;1.70;99.30;;;;;;5113952;28;20035;-89
2023/12/24 10:03:03;;;;;;;10.45;5.30;;;1.80;99.40;;;;;;5108416;28;20416;-88
2023/12/24 10:05:29;;;;;;;10.75;7.00;;;1.80;99.20;;;;;;5100412;28;20110;-88
2023/12/24 10:07:55;;;;;;;9.80;6.30;;;1.90;99.20;;;;;;5107178;28;20458;-88
2023/12/24 10:10:31;;;;;;;15.60;9.02;;;2.00;99.20;;;;;;5107644;28;20534;-87
2023/12/24 10:13:05;;;;;;;9.88;6.93;;;2.10;99.20;;;;;;5104360;28;20027;-88
2023/12/24 10:15:38;;;;;;;10.52;6.25;;;2.10;99.20;;;;;;5105724;28;20381;-88
2023/12/24 10:18:19;;;;;;;11.60;5.97;;;2.20;99.10;;;;;;5100254;28;20461;-90
2023/12/24 10:20:46;;;;;;;9.05;6.38;;;2.10;98.70;;;;;;5094990;28;20051;-87
2023/12/24 10:23:12;;;;;;;11.70;7.28;;;2.00;98.60;;;;;;5081882;28;20027;-89
2023/12/24 10:25:38;;;;;;;9.02;6.70;;;2.00;98.80;;;;;;5098152;28;20036;-89
2023/12/24 10:28:08;;;;;;;9.05;5.78;;;2.00;98.80;;;;;;5097767;28;20077;-89
2023/12/24 10:30:35;;;;;;;10.65;6.65;;;2.10;98.90;;;;;;5098484;28;20031;-87
2023/12/24 10:33:09;;;;;;;8.68;5.97;;;2.20;98.80;;;;;;5099977;28;20020;-89
2023/12/24 10:35:35;;;;;;;10.60;6.63;;;2.20;98.70;;;;;;5096110;28;20027;-90
2023/12/24 10:38:15;;;;;;;10.43;6.67;;;2.30;98.60;;;;;;5084761;28;20438;-90
2023/12/24 10:40:42;;;;;;;7.55;5.07;;;2.30;98.40;;;;;;5098872;28;20248;-88
2023/12/24 10:43:08;;;;;;;6.10;4.72;;;2.20;98.10;;;;;;5098482;28;20030;-89
2023/12/24 10:45:34;;;;;;;9.93;5.85;;;2.20;98.10;;;;;;5099967;28;20044;-89
2023/12/24 10:48:00;;;;;;;7.50;5.45;;;2.10;97.90;;;;;;5120106;28;20038;-90
2023/12/24 10:50:26;;;;;;;8.60;5.57;;;2.00;97.80;;;;;;5089061;28;20055;-88
2023/12/24 10:52:52;;;;;;;5.25;4.20;;;1.80;97.90;;;;;;5088427;28;20028;-89
2023/12/24 10:55:18;;;;;;;7.25;5.60;;;1.70;98.10;;;;;;5118794;28;20020;-88
2023/12/24 10:58:03;;;;;;;11.00;5.50;;;1.70;98.10;;;;;;5107939;28;20020;-89
2023/12/24 11:00:30;;;;;;;8.25;5.45;;;1.60;97.90;;;;;;5121098;28;20020;-87
2023/12/24 11:02:56;;;;;;;6.45;4.78;;;1.80;97.90;;;;;;5102487;28;20085;-85
2023/12/24 11:05:40;;;;;;;6.57;3.92;;;1.70;97.20;;;;;;5096663;28;20024;-89
2023/12/24 11:08:21;;;;;;;6.35;5.05;;;1.60;97.10;;;;;;5120359;28;20032;-87
2023/12/24 11:11:03;;;;;;;9.23;4.57;;;1.60;97.10;;;;;;5124893;28;20016;-84
2023/12/24 11:13:36;;;;;;;6.38;4.35;;;1.60;97.00;;;;;;5104023;28;20045;-86
2023/12/24 11:16:07;;;;;;;5.45;4.40;;;1.60;96.50;;;;;;5113812;28;20019;-85
2023/12/24 11:18:47;;;;;;;7.75;4.82;;;1.50;96.60;;;;;;5097503;28;20073;-87
2023/12/24 11:21:18;;;;;;;7.53;5.15;;;1.50;96.60;;;;;;5113778;28;20376;-84
2023/12/24 11:24:12;;;;;;;8.02;5.28;;;1.50;96.60;;;;;;5082212;28;20020;-86
2023/12/24 11:26:50;;;;;;;11.00;6.03;;;1.70;96.60;;;;;;5092885;28;20048;-87
2023/12/24 11:29:40;;;;;;;7.72;4.93;;;1.70;96.70;;;;;;5112510;28;20023;-86
2023/12/24 11:32:30;;;;;;;10.05;6.00;;;1.80;96.80;;;;;;5105859;28;20392;-85
2023/12/24 11:34:57;;;;;;;8.13;6.10;;;1.80;96.70;;;;;;5098031;28;20091;-89
2023/12/24 11:37:27;;;;;;;9.80;5.80;;;1.70;96.60;;;;;;5093059;28;20023;-90
2023/12/24 11:40:03;;;;;;;9.43;6.05;;;1.80;97.00;;;;;;5098212;28;20028;-83
2023/12/24 11:42:42;;;;;;;7.50;5.25;;;1.80;96.70;;;;;;5102296;28;20064;-85
2023/12/24 11:45:29;;;;;;;9.32;6.43;;;1.80;96.80;;;;;;5080574;28;20056;-85
2023/12/24 11:47:56;;;;;;;8.98;5.50;;;1.90;96.80;;;;;;5094183;28;20040;-86
2023/12/24 11:50:24;;;;;;;28.75;14.35;;;1.90;96.90;;;;;;5111746;28;20131;-84
2023/12/24 11:52:51;;;;;;;9.02;5.57;;;1.80;96.90;;;;;;5110788;28;20540;-87
2023/12/24 11:55:17;;;;;;;9.85;6.35;;;1.70;96.40;;;;;;5087334;28;20451;-84
2023/12/24 11:57:44;;;;;;;12.93;6.93;;;1.50;96.50;;;;;;5093772;28;20059;-82
2023/12/24 12:00:14;;;;;;;14.75;9.50;;;1.50;96.70;;;;;;5109131;28;20454;-85
2023/12/24 12:02:53;;;;;;;15.88;7.82;;;1.50;96.80;;;;;;5089524;28;20036;-86
2023/12/24 12:05:19;;;;;;;9.25;5.35;;;1.60;96.90;;;;;;5088007;28;20043;-83
2023/12/24 12:07:45;;;;;;;10.63;5.63;;;1.50;97.00;;;;;;5105995;28;20042;-87
2023/12/24 12:10:11;;;;;;;7.80;5.38;;;1.50;96.80;;;;;;5110974;28;20038;-86
2023/12/24 12:12:37;;;;;;;9.68;6.93;;;1.50;96.90;;;;;;5101958;28;20028;-85
2023/12/24 12:15:03;;;;;;;17.38;10.23;;;1.60;97.00;;;;;;5081004;28;20452;-82
2023/12/24 12:17:29;;;;;;;9.55;6.50;;;1.60;97.00;;;;;;5108366;28;20024;-85
2023/12/24 12:19:54;;;;;;;6.75;4.90;;;1.60;97.10;;;;;;5092746;28;20040;-87
2023/12/24 12:22:20;;;;;;;8.50;5.38;;;1.70;97.10;;;;;;5106322;28;20387;-85
2023/12/24 12:24:46;;;;;;;8.95;5.70;;;1.70;97.10;;;;;;5102440;28;20107;-85
2023/12/24 12:27:12;;;;;;;7.60;5.15;;;1.60;97.20;;;;;;5088517;28;20450;-83
2023/12/24 12:29:38;;;;;;;12.00;7.55;;;1.60;97.20;;;;;;5095785;28;20017;-81
2023/12/24 12:32:04;;;;;;;6.55;4.80;;;1.60;97.30;;;;;;5101015;28;20112;-91
2023/12/24 12:34:29;;;;;;;10.50;7.25;;;1.60;97.40;;;;;;5110084;28;20024;-89
2023/12/24 12:36:55;;;;;;;9.95;6.05;;;1.60;97.40;;;;;;5080543;28;20031;-86
2023/12/24 12:39:21;;;;;;;8.00;5.93;;;1.60;97.80;;;;;;5114670;28;20023;-85
2023/12/24 12:41:47;;;;;;;10.43;6.43;;;1.60;97.60;;;;;;5109566;28;20043;-86
2023/12/24 12:44:13;;;;;;;11.00;7.57;;;1.60;97.50;;;;;;5118897;28;20051;-85
2023/12/24 12:46:40;;;;;;;6.80;4.68;;;1.60;97.60;;;;;;5113677;28;20549;-92